sensor_id;sensor_type;location;lat;lon;timestamp;P1;durP1;ratioP1;P2;durP2;ratioP2
13989;SDS011;7069;52.528;13.316;2023-05-21T00:00:00;15.02;;;13.60;;
13989;SDS011;7069;52.528;13.316;2023-05-21T00:02:27;14.73;;;13.32;;
13989;SDS011;7069;52.528;13.316;2023-05-21T00:04:54;13.65;;;12.27;;
13989;SDS011;7069;52.528;13.316;2023-05-21T00:07:20;14.48;;;12.98;;
13989;SDS011;7069;52.528;13.316;2023-05-21T00:09:47;14.02;;;12.73;;
13989;SDS011;7069;52.528;13.316;2023-05-21T00:12:15;14.43;;;13.02;;
13989;SDS011;7069;52.528;13.316;2023-05-21T00:14:41;14.48;;;11.63;;
13989;SDS011;7069;52.528;13.316;2023-05-21T00:17:07;15.45;;;13.73;;
13989;SDS011;7069;52.528;13.316;2023-05-21T00:19:34;15.80;;;14.00;;
13989;SDS011;7069;52.528;13.316;2023-05-21T00:22:00;15.27;;;13.55;;
13989;SDS011;7069;52.528;13.316;2023-05-21T00:24:27;14.27;;;12.88;;
13989;SDS011;7069;52.528;13.316;2023-05-21T00:26:54;13.38;;;12.02;;
13989;SDS011;7069;52.528;13.316;2023-05-21T00:29:22;13.60;;;12.27;;
13989;SDS011;7069;52.528;13.316;2023-05-21T00:31:50;13.45;;;11.95;;
13989;SDS011;7069;52.528;13.316;2023-05-21T00:34:17;14.57;;;13.02;;
13989;SDS011;7069;52.528;13.316;2023-05-21T00:36:43;13.40;;;12.20;;
13989;SDS011;7069;52.528;13.316;2023-05-21T00:39:10;13.85;;;12.43;;
13989;SDS011;7069;52.528;13.316;2023-05-21T00:41:36;14.88;;;13.38;;
13989;SDS011;7069;52.528;13.316;2023-05-21T00:44:04;13.77;;;12.48;;
13989;SDS011;7069;52.528;13.316;2023-05-21T00:46:32;14.55;;;13.20;;
13989;SDS011;7069;52.528;13.316;2023-05-21T00:48:58;15.10;;;13.57;;
13989;SDS011;7069;52.528;13.316;2023-05-21T00:51:25;15.50;;;14.00;;
13989;SDS011;7069;52.528;13.316;2023-05-21T00:53:55;15.93;;;14.38;;
13989;SDS011;7069;52.528;13.316;2023-05-21T00:56:21;15.27;;;13.68;;
13989;SDS011;7069;52.528;13.316;2023-05-21T00:58:48;14.65;;;13.25;;
13989;SDS011;7069;52.528;13.316;2023-05-21T01:01:16;15.63;;;13.85;;
13989;SDS011;7069;52.528;13.316;2023-05-21T01:03:44;19.45;;;14.25;;
13989;SDS011;7069;52.528;13.316;2023-05-21T01:06:12;16.20;;;14.52;;
13989;SDS011;7069;52.528;13.316;2023-05-21T01:08:40;15.63;;;14.10;;
13989;SDS011;7069;52.528;13.316;2023-05-21T01:11:07;14.35;;;13.05;;
13989;SDS011;7069;52.528;13.316;2023-05-21T01:13:35;17.65;;;13.73;;
13989;SDS011;7069;52.528;13.316;2023-05-21T01:16:03;14.48;;;13.18;;
13989;SDS011;7069;52.528;13.316;2023-05-21T01:18:30;16.92;;;14.30;;
13989;SDS011;7069;52.528;13.316;2023-05-21T01:21:00;16.27;;;14.75;;
13989;SDS011;7069;52.528;13.316;2023-05-21T01:23:28;14.20;;;12.82;;
13989;SDS011;7069;52.528;13.316;2023-05-21T01:25:54;14.88;;;13.35;;
13989;SDS011;7069;52.528;13.316;2023-05-21T01:28:20;15.55;;;13.98;;
13989;SDS011;7069;52.528;13.316;2023-05-21T01:30:47;15.18;;;13.77;;
13989;SDS011;7069;52.528;13.316;2023-05-21T01:33:14;14.98;;;13.55;;
13989;SDS011;7069;52.528;13.316;2023-05-21T01:35:43;15.82;;;14.27;;
13989;SDS011;7069;52.528;13.316;2023-05-21T01:38:11;16.40;;;14.80;;
13989;SDS011;7069;52.528;13.316;2023-05-21T01:40:40;17.83;;;15.98;;
13989;SDS011;7069;52.528;13.316;2023-05-21T01:43:09;16.90;;;14.50;;
13989;SDS011;7069;52.528;13.316;2023-05-21T01:45:37;15.85;;;13.93;;
13989;SDS011;7069;52.528;13.316;2023-05-21T01:48:04;15.30;;;13.73;;
13989;SDS011;7069;52.528;13.316;2023-05-21T01:50:32;16.27;;;14.63;;
13989;SDS011;7069;52.528;13.316;2023-05-21T01:52:59;17.67;;;15.82;;
13989;SDS011;7069;52.528;13.316;2023-05-21T01:55:27;16.75;;;14.88;;
13989;SDS011;7069;52.528;13.316;2023-05-21T01:57:57;21.77;;;16.42;;
13989;SDS011;7069;52.528;13.316;2023-05-21T02:00:25;15.90;;;14.23;;
13989;SDS011;7069;52.528;13.316;2023-05-21T02:02:53;16.52;;;14.75;;
13989;SDS011;7069;52.528;13.316;2023-05-21T02:05:20;15.73;;;14.18;;
13989;SDS011;7069;52.528;13.316;2023-05-21T02:07:46;15.85;;;14.13;;
13989;SDS011;7069;52.528;13.316;2023-05-21T02:10:13;18.15;;;16.33;;
13989;SDS011;7069;52.528;13.316;2023-05-21T02:12:40;15.57;;;14.05;;
13989;SDS011;7069;52.528;13.316;2023-05-21T02:15:09;15.48;;;14.07;;
13989;SDS011;7069;52.528;13.316;2023-05-21T02:17:35;15.68;;;14.25;;
13989;SDS011;7069;52.528;13.316;2023-05-21T02:20:03;15.95;;;14.35;;
13989;SDS011;7069;52.528;13.316;2023-05-21T02:22:35;15.63;;;13.95;;
13989;SDS011;7069;52.528;13.316;2023-05-21T02:25:02;13.55;;;12.25;;
13989;SDS011;7069;52.528;13.316;2023-05-21T02:27:29;19.25;;;17.45;;
13989;SDS011;7069;52.528;13.316;2023-05-21T02:29:56;17.10;;;15.30;;
13989;SDS011;7069;52.528;13.316;2023-05-21T02:32:24;18.80;;;15.60;;
13989;SDS011;7069;52.528;13.316;2023-05-21T02:34:51;16.17;;;14.55;;
13989;SDS011;7069;52.528;13.316;2023-05-21T02:37:17;17.23;;;15.52;;
13989;SDS011;7069;52.528;13.316;2023-05-21T02:39:44;17.98;;;16.27;;
13989;SDS011;7069;52.528;13.316;2023-05-21T02:42:11;19.48;;;15.30;;
13989;SDS011;7069;52.528;13.316;2023-05-21T02:44:37;18.50;;;16.55;;
13989;SDS011;7069;52.528;13.316;2023-05-21T02:47:04;19.38;;;17.45;;
13989;SDS011;7069;52.528;13.316;2023-05-21T02:49:33;21.23;;;18.38;;
13989;SDS011;7069;52.528;13.316;2023-05-21T02:52:00;18.05;;;16.27;;
13989;SDS011;7069;52.528;13.316;2023-05-21T02:54:26;17.63;;;15.98;;
13989;SDS011;7069;52.528;13.316;2023-05-21T02:56:53;20.35;;;18.13;;
13989;SDS011;7069;52.528;13.316;2023-05-21T02:59:20;19.92;;;18.00;;
13989;SDS011;7069;52.528;13.316;2023-05-21T03:01:46;18.52;;;16.67;;
13989;SDS011;7069;52.528;13.316;2023-05-21T03:04:13;17.90;;;16.30;;
13989;SDS011;7069;52.528;13.316;2023-05-21T03:06:42;20.20;;;18.17;;
13989;SDS011;7069;52.528;13.316;2023-05-21T03:09:10;21.38;;;19.15;;
13989;SDS011;7069;52.528;13.316;2023-05-21T03:11:37;21.45;;;17.63;;
13989;SDS011;7069;52.528;13.316;2023-05-21T03:14:03;20.77;;;18.60;;
13989;SDS011;7069;52.528;13.316;2023-05-21T03:16:30;19.40;;;17.35;;
13989;SDS011;7069;52.528;13.316;2023-05-21T03:18:59;19.75;;;17.73;;
13989;SDS011;7069;52.528;13.316;2023-05-21T03:21:26;21.67;;;19.48;;
13989;SDS011;7069;52.528;13.316;2023-05-21T03:23:55;21.83;;;19.70;;
13989;SDS011;7069;52.528;13.316;2023-05-21T03:26:22;23.08;;;20.80;;
13989;SDS011;7069;52.528;13.316;2023-05-21T03:28:51;22.08;;;19.42;;
13989;SDS011;7069;52.528;13.316;2023-05-21T03:31:17;21.90;;;19.70;;
13989;SDS011;7069;52.528;13.316;2023-05-21T03:33:44;22.08;;;19.77;;
13989;SDS011;7069;52.528;13.316;2023-05-21T03:36:11;23.30;;;21.05;;
13989;SDS011;7069;52.528;13.316;2023-05-21T03:38:38;20.80;;;18.85;;
13989;SDS011;7069;52.528;13.316;2023-05-21T03:41:07;20.20;;;18.30;;
13989;SDS011;7069;52.528;13.316;2023-05-21T03:43:33;23.17;;;20.67;;
13989;SDS011;7069;52.528;13.316;2023-05-21T03:46:00;20.13;;;18.13;;
13989;SDS011;7069;52.528;13.316;2023-05-21T03:48:26;22.42;;;20.13;;
13989;SDS011;7069;52.528;13.316;2023-05-21T03:50:53;22.17;;;19.90;;
13989;SDS011;7069;52.528;13.316;2023-05-21T03:53:20;23.70;;;19.50;;
13989;SDS011;7069;52.528;13.316;2023-05-21T03:55:46;21.98;;;19.90;;
13989;SDS011;7069;52.528;13.316;2023-05-21T03:58:20;21.00;;;19.00;;
13989;SDS011;7069;52.528;13.316;2023-05-21T04:00:47;22.52;;;20.27;;
13989;SDS011;7069;52.528;13.316;2023-05-21T04:03:13;21.55;;;19.45;;
13989;SDS011;7069;52.528;13.316;2023-05-21T04:05:40;22.13;;;19.92;;
13989;SDS011;7069;52.528;13.316;2023-05-21T04:08:07;22.55;;;20.02;;
13989;SDS011;7069;52.528;13.316;2023-05-21T04:10:34;23.75;;;21.42;;
13989;SDS011;7069;52.528;13.316;2023-05-21T04:13:00;23.08;;;20.75;;
13989;SDS011;7069;52.528;13.316;2023-05-21T04:15:28;22.48;;;20.27;;
13989;SDS011;7069;52.528;13.316;2023-05-21T04:17:55;21.65;;;19.58;;
13989;SDS011;7069;52.528;13.316;2023-05-21T04:20:22;20.38;;;18.17;;
13989;SDS011;7069;52.528;13.316;2023-05-21T04:22:49;22.40;;;20.10;;
13989;SDS011;7069;52.528;13.316;2023-05-21T04:25:15;21.17;;;19.08;;
13989;SDS011;7069;52.528;13.316;2023-05-21T04:27:44;21.92;;;19.85;;
13989;SDS011;7069;52.528;13.316;2023-05-21T04:30:11;25.77;;;23.10;;
13989;SDS011;7069;52.528;13.316;2023-05-21T04:32:39;21.30;;;19.00;;
13989;SDS011;7069;52.528;13.316;2023-05-21T04:35:09;21.23;;;19.25;;
13989;SDS011;7069;52.528;13.316;2023-05-21T04:37:36;19.65;;;17.63;;
13989;SDS011;7069;52.528;13.316;2023-05-21T04:40:06;20.73;;;18.27;;
13989;SDS011;7069;52.528;13.316;2023-05-21T04:42:33;21.55;;;19.42;;
13989;SDS011;7069;52.528;13.316;2023-05-21T04:45:00;20.40;;;18.48;;
13989;SDS011;7069;52.528;13.316;2023-05-21T04:47:26;20.65;;;18.48;;
13989;SDS011;7069;52.528;13.316;2023-05-21T04:49:55;22.58;;;20.42;;
13989;SDS011;7069;52.528;13.316;2023-05-21T04:52:23;22.73;;;20.45;;
13989;SDS011;7069;52.528;13.316;2023-05-21T04:54:50;22.70;;;20.30;;
13989;SDS011;7069;52.528;13.316;2023-05-21T04:57:18;19.77;;;17.67;;
13989;SDS011;7069;52.528;13.316;2023-05-21T04:59:45;21.17;;;17.75;;
13989;SDS011;7069;52.528;13.316;2023-05-21T05:02:13;20.10;;;18.10;;
13989;SDS011;7069;52.528;13.316;2023-05-21T05:04:39;22.40;;;20.05;;
13989;SDS011;7069;52.528;13.316;2023-05-21T05:07:09;20.38;;;18.42;;
13989;SDS011;7069;52.528;13.316;2023-05-21T05:09:36;22.23;;;20.25;;
13989;SDS011;7069;52.528;13.316;2023-05-21T05:12:03;20.85;;;18.65;;
13989;SDS011;7069;52.528;13.316;2023-05-21T05:14:29;20.83;;;18.80;;
13989;SDS011;7069;52.528;13.316;2023-05-21T05:16:56;20.20;;;18.20;;
13989;SDS011;7069;52.528;13.316;2023-05-21T05:19:24;21.20;;;19.13;;
13989;SDS011;7069;52.528;13.316;2023-05-21T05:21:51;20.80;;;18.83;;
13989;SDS011;7069;52.528;13.316;2023-05-21T05:24:19;22.80;;;20.38;;
13989;SDS011;7069;52.528;13.316;2023-05-21T05:26:46;21.92;;;19.75;;
13989;SDS011;7069;52.528;13.316;2023-05-21T05:29:12;20.95;;;18.92;;
13989;SDS011;7069;52.528;13.316;2023-05-21T05:31:39;22.63;;;20.40;;
13989;SDS011;7069;52.528;13.316;2023-05-21T05:34:05;23.67;;;21.38;;
13989;SDS011;7069;52.528;13.316;2023-05-21T05:36:32;20.42;;;18.63;;
13989;SDS011;7069;52.528;13.316;2023-05-21T05:38:59;20.75;;;18.52;;
13989;SDS011;7069;52.528;13.316;2023-05-21T05:41:27;23.45;;;20.77;;
13989;SDS011;7069;52.528;13.316;2023-05-21T05:43:53;22.40;;;20.10;;
13989;SDS011;7069;52.528;13.316;2023-05-21T05:46:20;20.45;;;18.10;;
13989;SDS011;7069;52.528;13.316;2023-05-21T05:48:47;22.17;;;20.13;;
13989;SDS011;7069;52.528;13.316;2023-05-21T05:51:13;22.75;;;20.35;;
13989;SDS011;7069;52.528;13.316;2023-05-21T05:53:41;21.65;;;19.65;;
13989;SDS011;7069;52.528;13.316;2023-05-21T05:56:08;22.25;;;20.20;;
13989;SDS011;7069;52.528;13.316;2023-05-21T05:58:36;22.10;;;19.80;;
13989;SDS011;7069;52.528;13.316;2023-05-21T06:01:02;22.45;;;20.25;;
13989;SDS011;7069;52.528;13.316;2023-05-21T06:03:29;22.10;;;18.65;;
13989;SDS011;7069;52.528;13.316;2023-05-21T06:05:56;20.92;;;18.83;;
13989;SDS011;7069;52.528;13.316;2023-05-21T06:08:22;20.52;;;18.63;;
13989;SDS011;7069;52.528;13.316;2023-05-21T06:10:49;19.17;;;17.27;;
13989;SDS011;7069;52.528;13.316;2023-05-21T06:13:16;18.85;;;17.20;;
13989;SDS011;7069;52.528;13.316;2023-05-21T06:15:44;20.20;;;18.23;;
13989;SDS011;7069;52.528;13.316;2023-05-21T06:18:10;19.38;;;17.60;;
13989;SDS011;7069;52.528;13.316;2023-05-21T06:20:37;21.25;;;18.63;;
13989;SDS011;7069;52.528;13.316;2023-05-21T06:23:04;19.73;;;17.85;;
13989;SDS011;7069;52.528;13.316;2023-05-21T06:25:33;19.30;;;17.55;;
13989;SDS011;7069;52.528;13.316;2023-05-21T06:27:59;19.30;;;17.52;;
13989;SDS011;7069;52.528;13.316;2023-05-21T06:30:26;19.83;;;17.88;;
13989;SDS011;7069;52.528;13.316;2023-05-21T06:32:54;19.70;;;17.73;;
13989;SDS011;7069;52.528;13.316;2023-05-21T06:35:21;18.02;;;16.35;;
13989;SDS011;7069;52.528;13.316;2023-05-21T06:37:48;19.00;;;17.02;;
13989;SDS011;7069;52.528;13.316;2023-05-21T06:40:14;17.55;;;15.95;;
13989;SDS011;7069;52.528;13.316;2023-05-21T06:42:41;20.30;;;18.30;;
13989;SDS011;7069;52.528;13.316;2023-05-21T06:45:08;18.15;;;16.58;;
13989;SDS011;7069;52.528;13.316;2023-05-21T06:47:34;18.60;;;16.63;;
13989;SDS011;7069;52.528;13.316;2023-05-21T06:50:02;17.85;;;16.25;;
13989;SDS011;7069;52.528;13.316;2023-05-21T06:52:29;18.90;;;17.08;;
13989;SDS011;7069;52.528;13.316;2023-05-21T06:54:56;19.23;;;17.35;;
13989;SDS011;7069;52.528;13.316;2023-05-21T06:57:23;17.77;;;16.10;;
13989;SDS011;7069;52.528;13.316;2023-05-21T06:59:49;18.58;;;16.65;;
13989;SDS011;7069;52.528;13.316;2023-05-21T07:02:16;20.50;;;18.38;;
13989;SDS011;7069;52.528;13.316;2023-05-21T07:04:43;18.05;;;16.35;;
13989;SDS011;7069;52.528;13.316;2023-05-21T07:07:11;18.77;;;17.13;;
13989;SDS011;7069;52.528;13.316;2023-05-21T07:09:37;19.58;;;17.70;;
13989;SDS011;7069;52.528;13.316;2023-05-21T07:12:04;18.55;;;16.85;;
13989;SDS011;7069;52.528;13.316;2023-05-21T07:14:31;18.27;;;15.85;;
13989;SDS011;7069;52.528;13.316;2023-05-21T07:16:58;19.15;;;17.33;;
13989;SDS011;7069;52.528;13.316;2023-05-21T07:19:24;18.33;;;16.50;;
13989;SDS011;7069;52.528;13.316;2023-05-21T07:21:51;18.85;;;16.75;;
13989;SDS011;7069;52.528;13.316;2023-05-21T07:24:19;20.10;;;16.63;;
13989;SDS011;7069;52.528;13.316;2023-05-21T07:26:45;16.38;;;14.95;;
13989;SDS011;7069;52.528;13.316;2023-05-21T07:29:12;16.40;;;14.80;;
13989;SDS011;7069;52.528;13.316;2023-05-21T07:31:39;17.17;;;15.55;;
13989;SDS011;7069;52.528;13.316;2023-05-21T07:34:05;16.88;;;15.18;;
13989;SDS011;7069;52.528;13.316;2023-05-21T07:36:32;15.90;;;14.45;;
13989;SDS011;7069;52.528;13.316;2023-05-21T07:38:58;15.18;;;13.60;;
13989;SDS011;7069;52.528;13.316;2023-05-21T07:41:27;15.68;;;14.15;;
13989;SDS011;7069;52.528;13.316;2023-05-21T07:43:53;22.38;;;14.18;;
13989;SDS011;7069;52.528;13.316;2023-05-21T07:46:20;15.23;;;13.73;;
13989;SDS011;7069;52.528;13.316;2023-05-21T07:48:46;16.38;;;14.57;;
13989;SDS011;7069;52.528;13.316;2023-05-21T07:51:14;17.13;;;15.40;;
13989;SDS011;7069;52.528;13.316;2023-05-21T07:53:40;14.48;;;13.07;;
13989;SDS011;7069;52.528;13.316;2023-05-21T07:56:07;14.60;;;13.25;;
13989;SDS011;7069;52.528;13.316;2023-05-21T07:58:35;15.18;;;13.68;;
13989;SDS011;7069;52.528;13.316;2023-05-21T08:01:01;13.63;;;12.27;;
13989;SDS011;7069;52.528;13.316;2023-05-21T08:03:27;14.02;;;12.70;;
13989;SDS011;7069;52.528;13.316;2023-05-21T08:05:55;14.40;;;13.10;;
13989;SDS011;7069;52.528;13.316;2023-05-21T08:08:21;13.68;;;12.40;;
13989;SDS011;7069;52.528;13.316;2023-05-21T08:10:48;15.40;;;13.45;;
13989;SDS011;7069;52.528;13.316;2023-05-21T08:13:14;14.05;;;12.85;;
13989;SDS011;7069;52.528;13.316;2023-05-21T08:15:42;15.32;;;12.65;;
13989;SDS011;7069;52.528;13.316;2023-05-21T08:18:09;12.90;;;11.70;;
13989;SDS011;7069;52.528;13.316;2023-05-21T08:20:35;12.88;;;11.77;;
13989;SDS011;7069;52.528;13.316;2023-05-21T08:23:02;13.63;;;12.43;;
13989;SDS011;7069;52.528;13.316;2023-05-21T08:25:28;12.80;;;11.32;;
13989;SDS011;7069;52.528;13.316;2023-05-21T08:27:55;16.30;;;13.13;;
13989;SDS011;7069;52.528;13.316;2023-05-21T08:30:22;12.52;;;10.98;;
13989;SDS011;7069;52.528;13.316;2023-05-21T08:32:50;13.50;;;12.00;;
13989;SDS011;7069;52.528;13.316;2023-05-21T08:35:16;13.77;;;12.48;;
13989;SDS011;7069;52.528;13.316;2023-05-21T08:37:43;13.65;;;12.50;;
13989;SDS011;7069;52.528;13.316;2023-05-21T08:40:10;13.02;;;11.68;;
13989;SDS011;7069;52.528;13.316;2023-05-21T08:42:38;12.50;;;11.38;;
13989;SDS011;7069;52.528;13.316;2023-05-21T08:45:06;12.43;;;11.20;;
13989;SDS011;7069;52.528;13.316;2023-05-21T08:47:33;12.35;;;11.23;;
13989;SDS011;7069;52.528;13.316;2023-05-21T08:50:02;13.23;;;11.93;;
13989;SDS011;7069;52.528;13.316;2023-05-21T08:52:29;11.68;;;10.48;;
13989;SDS011;7069;52.528;13.316;2023-05-21T08:54:56;11.88;;;10.55;;
13989;SDS011;7069;52.528;13.316;2023-05-21T08:57:23;11.90;;;10.35;;
13989;SDS011;7069;52.528;13.316;2023-05-21T08:59:50;12.68;;;11.50;;
13989;SDS011;7069;52.528;13.316;2023-05-21T09:02:17;12.65;;;11.02;;
13989;SDS011;7069;52.528;13.316;2023-05-21T09:04:44;11.90;;;10.70;;
13989;SDS011;7069;52.528;13.316;2023-05-21T09:07:14;11.18;;;10.13;;
13989;SDS011;7069;52.528;13.316;2023-05-21T09:09:43;16.02;;;10.57;;
13989;SDS011;7069;52.528;13.316;2023-05-21T09:12:12;11.30;;;10.40;;
13989;SDS011;7069;52.528;13.316;2023-05-21T09:14:38;11.98;;;10.95;;
13989;SDS011;7069;52.528;13.316;2023-05-21T09:17:05;12.63;;;11.07;;
13989;SDS011;7069;52.528;13.316;2023-05-21T09:19:32;11.68;;;10.60;;
13989;SDS011;7069;52.528;13.316;2023-05-21T09:22:00;11.50;;;10.48;;
13989;SDS011;7069;52.528;13.316;2023-05-21T09:24:28;15.55;;;10.38;;
13989;SDS011;7069;52.528;13.316;2023-05-21T09:26:56;12.18;;;11.07;;
13989;SDS011;7069;52.528;13.316;2023-05-21T09:29:22;11.70;;;10.10;;
13989;SDS011;7069;52.528;13.316;2023-05-21T09:31:50;10.82;;;9.05;;
13989;SDS011;7069;52.528;13.316;2023-05-21T09:34:18;11.30;;;9.85;;
13989;SDS011;7069;52.528;13.316;2023-05-21T09:36:45;15.50;;;10.20;;
13989;SDS011;7069;52.528;13.316;2023-05-21T09:39:13;10.60;;;9.50;;
13989;SDS011;7069;52.528;13.316;2023-05-21T09:41:54;11.90;;;10.80;;
13989;SDS011;7069;52.528;13.316;2023-05-21T09:44:21;10.73;;;9.55;;
13989;SDS011;7069;52.528;13.316;2023-05-21T09:46:48;14.45;;;10.70;;
13989;SDS011;7069;52.528;13.316;2023-05-21T09:49:21;9.80;;;9.00;;
13989;SDS011;7069;52.528;13.316;2023-05-21T09:51:47;10.35;;;9.07;;
13989;SDS011;7069;52.528;13.316;2023-05-21T09:54:14;9.73;;;8.93;;
13989;SDS011;7069;52.528;13.316;2023-05-21T09:56:40;11.55;;;8.77;;
13989;SDS011;7069;52.528;13.316;2023-05-21T09:59:08;11.57;;;9.65;;
13989;SDS011;7069;52.528;13.316;2023-05-21T10:01:34;10.10;;;9.15;;
13989;SDS011;7069;52.528;13.316;2023-05-21T10:04:04;9.55;;;8.60;;
13989;SDS011;7069;52.528;13.316;2023-05-21T10:06:31;9.23;;;8.30;;
13989;SDS011;7069;52.528;13.316;2023-05-21T10:09:00;9.73;;;7.95;;
13989;SDS011;7069;52.528;13.316;2023-05-21T10:11:29;12.32;;;9.75;;
13989;SDS011;7069;52.528;13.316;2023-05-21T10:13:56;9.05;;;8.15;;
13989;SDS011;7069;52.528;13.316;2023-05-21T10:16:24;9.65;;;8.75;;
13989;SDS011;7069;52.528;13.316;2023-05-21T10:18:51;12.30;;;7.78;;
13989;SDS011;7069;52.528;13.316;2023-05-21T10:21:22;11.52;;;8.13;;
13989;SDS011;7069;52.528;13.316;2023-05-21T10:23:48;8.98;;;7.68;;
13989;SDS011;7069;52.528;13.316;2023-05-21T10:26:16;11.35;;;9.10;;
13989;SDS011;7069;52.528;13.316;2023-05-21T10:28:43;8.88;;;7.97;;
13989;SDS011;7069;52.528;13.316;2023-05-21T10:31:10;8.55;;;7.85;;
13989;SDS011;7069;52.528;13.316;2023-05-21T10:33:38;8.90;;;8.07;;
13989;SDS011;7069;52.528;13.316;2023-05-21T10:36:06;10.70;;;8.98;;
13989;SDS011;7069;52.528;13.316;2023-05-21T10:38:32;8.23;;;7.43;;
13989;SDS011;7069;52.528;13.316;2023-05-21T10:40:59;8.50;;;7.68;;
13989;SDS011;7069;52.528;13.316;2023-05-21T10:43:48;9.13;;;8.07;;
13989;SDS011;7069;52.528;13.316;2023-05-21T10:46:40;8.77;;;7.97;;
13989;SDS011;7069;52.528;13.316;2023-05-21T10:49:16;9.57;;;8.70;;
13989;SDS011;7069;52.528;13.316;2023-05-21T10:51:48;8.25;;;7.45;;
13989;SDS011;7069;52.528;13.316;2023-05-21T10:57:04;8.82;;;7.93;;
13989;SDS011;7069;52.528;13.316;2023-05-21T10:59:35;8.70;;;7.95;;
13989;SDS011;7069;52.528;13.316;2023-05-21T11:02:05;83.57;;;76.30;;
13989;SDS011;7069;52.528;13.316;2023-05-21T11:04:33;23.40;;;21.15;;
13989;SDS011;7069;52.528;13.316;2023-05-21T11:07:03;9.02;;;8.23;;
13989;SDS011;7069;52.528;13.316;2023-05-21T11:09:30;8.68;;;7.80;;
13989;SDS011;7069;52.528;13.316;2023-05-21T11:11:56;11.68;;;7.63;;
13989;SDS011;7069;52.528;13.316;2023-05-21T11:14:29;8.55;;;7.10;;
13989;SDS011;7069;52.528;13.316;2023-05-21T11:16:57;10.65;;;6.82;;
13989;SDS011;7069;52.528;13.316;2023-05-21T11:19:32;7.82;;;7.13;;
13989;SDS011;7069;52.528;13.316;2023-05-21T11:21:59;7.43;;;6.57;;
13989;SDS011;7069;52.528;13.316;2023-05-21T11:24:25;8.00;;;6.95;;
13989;SDS011;7069;52.528;13.316;2023-05-21T11:26:59;9.88;;;7.28;;
13989;SDS011;7069;52.528;13.316;2023-05-21T11:29:36;7.88;;;7.18;;
13989;SDS011;7069;52.528;13.316;2023-05-21T11:32:06;7.18;;;6.40;;
13989;SDS011;7069;52.528;13.316;2023-05-21T11:34:38;7.53;;;6.93;;
13989;SDS011;7069;52.528;13.316;2023-05-21T11:39:51;7.72;;;6.95;;
13989;SDS011;7069;52.528;13.316;2023-05-21T11:42:26;8.20;;;7.50;;
13989;SDS011;7069;52.528;13.316;2023-05-21T11:44:54;8.20;;;6.72;;
13989;SDS011;7069;52.528;13.316;2023-05-21T11:47:21;7.10;;;6.15;;
13989;SDS011;7069;52.528;13.316;2023-05-21T11:49:49;8.15;;;6.38;;
13989;SDS011;7069;52.528;13.316;2023-05-21T11:52:15;7.07;;;6.38;;
13989;SDS011;7069;52.528;13.316;2023-05-21T11:54:44;7.40;;;6.75;;
13989;SDS011;7069;52.528;13.316;2023-05-21T11:57:12;7.60;;;6.90;;
13989;SDS011;7069;52.528;13.316;2023-05-21T11:59:40;7.07;;;6.47;;
13989;SDS011;7069;52.528;13.316;2023-05-21T12:02:07;7.70;;;6.85;;
13989;SDS011;7069;52.528;13.316;2023-05-21T12:04:34;6.68;;;6.18;;
13989;SDS011;7069;52.528;13.316;2023-05-21T12:07:03;6.90;;;6.40;;
13989;SDS011;7069;52.528;13.316;2023-05-21T12:09:37;6.63;;;6.07;;
13989;SDS011;7069;52.528;13.316;2023-05-21T12:12:03;7.43;;;5.88;;
13989;SDS011;7069;52.528;13.316;2023-05-21T12:14:30;6.93;;;6.15;;
13989;SDS011;7069;52.528;13.316;2023-05-21T12:16:56;6.70;;;6.10;;
13989;SDS011;7069;52.528;13.316;2023-05-21T12:19:23;7.40;;;6.68;;
13989;SDS011;7069;52.528;13.316;2023-05-21T12:21:49;9.10;;;6.25;;
13989;SDS011;7069;52.528;13.316;2023-05-21T12:24:17;6.30;;;5.80;;
13989;SDS011;7069;52.528;13.316;2023-05-21T12:26:44;7.40;;;6.50;;
13989;SDS011;7069;52.528;13.316;2023-05-21T12:29:10;6.90;;;6.30;;
13989;SDS011;7069;52.528;13.316;2023-05-21T12:31:45;6.80;;;6.25;;
13989;SDS011;7069;52.528;13.316;2023-05-21T12:34:11;6.68;;;6.07;;
13989;SDS011;7069;52.528;13.316;2023-05-21T12:36:39;7.45;;;6.78;;
13989;SDS011;7069;52.528;13.316;2023-05-21T12:39:10;7.10;;;6.40;;
13989;SDS011;7069;52.528;13.316;2023-05-21T12:41:38;7.38;;;6.20;;
13989;SDS011;7069;52.528;13.316;2023-05-21T12:44:04;7.18;;;6.47;;
13989;SDS011;7069;52.528;13.316;2023-05-21T12:46:32;6.82;;;6.13;;
13989;SDS011;7069;52.528;13.316;2023-05-21T12:48:59;6.68;;;6.07;;
13989;SDS011;7069;52.528;13.316;2023-05-21T12:51:25;8.75;;;6.63;;
13989;SDS011;7069;52.528;13.316;2023-05-21T12:54:02;6.68;;;6.07;;
13989;SDS011;7069;52.528;13.316;2023-05-21T12:56:28;6.88;;;6.25;;
13989;SDS011;7069;52.528;13.316;2023-05-21T12:59:12;6.72;;;6.13;;
13989;SDS011;7069;52.528;13.316;2023-05-21T13:01:39;6.65;;;6.00;;
13989;SDS011;7069;52.528;13.316;2023-05-21T13:04:06;7.93;;;6.57;;
13989;SDS011;7069;52.528;13.316;2023-05-21T13:06:40;7.00;;;6.35;;
13989;SDS011;7069;52.528;13.316;2023-05-21T13:09:07;7.70;;;7.05;;
13989;SDS011;7069;52.528;13.316;2023-05-21T13:11:33;7.45;;;6.80;;
13989;SDS011;7069;52.528;13.316;2023-05-21T13:13:59;6.70;;;6.13;;
13989;SDS011;7069;52.528;13.316;2023-05-21T13:16:27;7.95;;;7.15;;
13989;SDS011;7069;52.528;13.316;2023-05-21T13:18:54;7.53;;;6.55;;
13989;SDS011;7069;52.528;13.316;2023-05-21T13:21:20;11.30;;;7.70;;
13989;SDS011;7069;52.528;13.316;2023-05-21T13:23:47;10.00;;;7.53;;
13989;SDS011;7069;52.528;13.316;2023-05-21T13:26:14;7.22;;;6.57;;
13989;SDS011;7069;52.528;13.316;2023-05-21T13:28:41;10.85;;;7.38;;
13989;SDS011;7069;52.528;13.316;2023-05-21T13:31:08;7.43;;;6.72;;
13989;SDS011;7069;52.528;13.316;2023-05-21T13:33:37;8.18;;;7.38;;
13989;SDS011;7069;52.528;13.316;2023-05-21T13:36:04;7.85;;;7.03;;
13989;SDS011;7069;52.528;13.316;2023-05-21T13:38:31;7.25;;;6.65;;
13989;SDS011;7069;52.528;13.316;2023-05-21T13:40:57;8.52;;;6.38;;
13989;SDS011;7069;52.528;13.316;2023-05-21T13:43:24;7.93;;;7.15;;
13989;SDS011;7069;52.528;13.316;2023-05-21T13:45:51;6.72;;;6.18;;
13989;SDS011;7069;52.528;13.316;2023-05-21T13:48:17;7.22;;;6.53;;
13989;SDS011;7069;52.528;13.316;2023-05-21T13:50:45;7.65;;;6.93;;
13989;SDS011;7069;52.528;13.316;2023-05-21T13:53:12;6.43;;;5.85;;
13989;SDS011;7069;52.528;13.316;2023-05-21T13:55:38;7.28;;;6.68;;
13989;SDS011;7069;52.528;13.316;2023-05-21T13:58:05;7.55;;;6.90;;
13989;SDS011;7069;52.528;13.316;2023-05-21T14:00:31;7.72;;;7.07;;
13989;SDS011;7069;52.528;13.316;2023-05-21T14:02:57;7.80;;;7.05;;
13989;SDS011;7069;52.528;13.316;2023-05-21T14:05:24;7.68;;;6.97;;
13989;SDS011;7069;52.528;13.316;2023-05-21T14:07:51;9.23;;;7.97;;
13989;SDS011;7069;52.528;13.316;2023-05-21T14:10:18;7.97;;;7.18;;
13989;SDS011;7069;52.528;13.316;2023-05-21T14:12:45;12.48;;;7.38;;
13989;SDS011;7069;52.528;13.316;2023-05-21T14:15:11;7.53;;;6.93;;
13989;SDS011;7069;52.528;13.316;2023-05-21T14:17:37;8.93;;;7.57;;
13989;SDS011;7069;52.528;13.316;2023-05-21T14:20:06;8.35;;;7.45;;
13989;SDS011;7069;52.528;13.316;2023-05-21T14:22:33;8.02;;;7.32;;
13989;SDS011;7069;52.528;13.316;2023-05-21T14:25:00;7.45;;;6.75;;
13989;SDS011;7069;52.528;13.316;2023-05-21T14:27:27;6.63;;;6.13;;
13989;SDS011;7069;52.528;13.316;2023-05-21T14:29:53;7.63;;;6.93;;
13989;SDS011;7069;52.528;13.316;2023-05-21T14:32:20;6.63;;;6.07;;
13989;SDS011;7069;52.528;13.316;2023-05-21T14:34:46;8.32;;;6.55;;